Kappa, Illinois
Current Conditions -  °F | °C
As of 11:56 AM on Thursday 27 Nov 2014 (Local Time) from KBMI Reporting Station
Light Snow Light Snow  
Wind Chill: 16°   Ceiling: 1500
Heat Index: 26°   Visibility: 2.5mi
Dew Point: 23°   Wind: 10mph
Humidity: 88%   Direction: 310°NW
Pressure: 30.38"   Gusts: NA
Location:  40.7564°N, 89.0023°W
Report Text: KBMI 271756Z 31009KT 2 1/2SM -SN BR BKN015 OVC020 M03/M05 A3038 RMK AO2 50003 60000 T10331050 11027 21050 P0000 SLP310
Loading
Personal Weather Stations






























Interactive Weather Map New forecast layout! Learn more

10-Day Weather Forecast

Advertisements
Track Severe Weather on mobile